createdAt,value
2023-02-22T00:01:09.014Z,14.18
2023-02-22T00:03:54.904Z,13.93
2023-02-22T00:06:43.110Z,15.30
2023-02-22T00:09:30.392Z,13.70
2023-02-22T00:12:16.229Z,14.15
2023-02-22T00:15:01.939Z,13.85
2023-02-22T00:17:49.364Z,14.10
2023-02-22T00:20:35.111Z,14.65
2023-02-22T00:23:22.681Z,14.40
2023-02-22T00:26:09.886Z,14.60
2023-02-22T00:28:56.369Z,14.10
2023-02-22T00:31:43.412Z,14.18
2023-02-22T00:34:32.332Z,13.93
2023-02-22T00:37:18.342Z,14.52
2023-02-22T00:40:08.419Z,15.88
2023-02-22T00:42:54.283Z,14.85
2023-02-22T00:45:39.636Z,15.23
2023-02-22T00:48:26.208Z,15.00
2023-02-22T00:51:13.467Z,15.82
2023-02-22T00:53:59.338Z,15.82
2023-02-22T00:56:45.487Z,15.57
2023-02-22T00:59:31.169Z,16.13
2023-02-22T01:02:17.438Z,15.82
2023-02-22T01:05:03.181Z,15.88
2023-02-22T01:07:50.716Z,16.50
2023-02-22T01:10:37.892Z,16.67
2023-02-22T01:13:24.516Z,17.27
2023-02-22T01:16:11.247Z,17.77
2023-02-22T01:18:56.911Z,17.98
2023-02-22T01:21:43.296Z,18.15
2023-02-22T01:24:30.224Z,17.60
2023-02-22T01:27:17.362Z,17.83
2023-02-22T01:30:08.604Z,18.45
2023-02-22T01:32:55.013Z,18.27
2023-02-22T01:35:41.541Z,18.35
2023-02-22T01:38:27.640Z,18.63
2023-02-22T01:41:18.386Z,19.25
2023-02-22T01:44:20.038Z,19.88
2023-02-22T01:47:06.513Z,19.42
2023-02-22T01:49:52.423Z,21.02
2023-02-22T01:52:38.263Z,20.00
2023-02-22T01:55:24.952Z,18.42
2023-02-22T01:58:13.207Z,19.13
2023-02-22T02:01:01.202Z,20.50
2023-02-22T02:03:49.197Z,20.42
2023-02-22T02:06:37.172Z,20.63
2023-02-22T02:09:30.245Z,20.42
2023-02-22T02:12:19.608Z,21.50
2023-02-22T02:15:22.442Z,21.17
2023-02-22T02:18:11.735Z,21.40
2023-02-22T02:21:42.072Z,21.02
2023-02-22T02:24:51.584Z,20.52
2023-02-22T02:27:57.220Z,20.55
2023-02-22T02:31:21.760Z,19.48
2023-02-22T02:34:20.351Z,20.52
2023-02-22T02:37:12.311Z,20.15
2023-02-22T02:40:04.904Z,20.52
2023-02-22T02:42:57.982Z,21.67
2023-02-22T02:45:49.625Z,20.75
2023-02-22T02:48:37.224Z,21.10
2023-02-22T02:51:28.520Z,20.70
2023-02-22T02:54:15.249Z,21.48
2023-02-22T02:57:03.459Z,21.98
2023-02-22T02:59:48.988Z,18.98
2023-02-22T03:02:48.855Z,20.30
2023-02-22T03:05:57.056Z,20.40
2023-02-22T03:08:50.445Z,20.02
2023-02-22T03:11:48.413Z,20.85
2023-02-22T03:14:41.353Z,19.33
2023-02-22T03:17:41.346Z,20.83
2023-02-22T03:20:31.835Z,19.30
2023-02-22T03:23:25.386Z,20.23
2023-02-22T03:26:19.668Z,20.58
2023-02-22T03:29:08.251Z,20.75
2023-02-22T03:32:01.351Z,19.88
2023-02-22T03:34:57.004Z,20.92
2023-02-22T03:37:50.545Z,20.27
2023-02-22T03:40:43.509Z,20.95
2023-02-22T03:43:36.746Z,21.65
2023-02-22T03:46:26.290Z,21.58
2023-02-22T03:49:17.909Z,21.63
2023-02-22T03:52:04.888Z,21.23
2023-02-22T03:54:55.450Z,21.92
2023-02-22T03:57:47.066Z,22.63
2023-02-22T04:00:35.552Z,22.83
2023-02-22T04:03:22.370Z,21.45
2023-02-22T04:06:09.031Z,21.60
2023-02-22T04:08:55.029Z,22.02
2023-02-22T04:11:41.061Z,21.40
2023-02-22T04:14:29.302Z,22.83
2023-02-22T04:17:17.783Z,23.13
2023-02-22T04:20:03.914Z,21.77
2023-02-22T04:23:01.171Z,21.88
2023-02-22T04:25:47.766Z,23.83
2023-02-22T04:28:35.794Z,23.35
2023-02-22T04:31:28.802Z,23.63
2023-02-22T04:34:19.105Z,23.50
2023-02-22T04:37:05.189Z,23.77
2023-02-22T04:39:51.782Z,24.42
2023-02-22T04:42:38.406Z,23.52
2023-02-22T04:45:24.946Z,23.13
2023-02-22T04:48:10.759Z,23.92
2023-02-22T04:50:58.112Z,23.35
2023-02-22T04:53:44.068Z,22.50
2023-02-22T04:56:29.721Z,24.05
2023-02-22T04:59:15.511Z,26.50
2023-02-22T05:02:04.161Z,25.88
2023-02-22T05:04:50.554Z,25.00
2023-02-22T05:07:37.846Z,26.45
2023-02-22T05:10:24.782Z,25.38
2023-02-22T05:13:10.758Z,24.85
2023-02-22T05:15:56.525Z,23.75
2023-02-22T05:18:42.728Z,26.55
2023-02-22T05:21:28.375Z,24.30
2023-02-22T05:24:15.558Z,23.65
2023-02-22T05:27:01.435Z,25.17
2023-02-22T05:29:47.295Z,24.80
2023-02-22T05:32:33.022Z,25.13
2023-02-22T05:35:22.581Z,26.05
2023-02-22T05:38:10.257Z,26.95
2023-02-22T05:40:57.438Z,28.63
2023-02-22T05:43:43.016Z,27.10
2023-02-22T05:46:28.778Z,25.83
2023-02-22T05:49:14.675Z,27.17
2023-02-22T05:52:00.581Z,26.08
2023-02-22T05:54:46.014Z,25.05
2023-02-22T05:57:33.664Z,25.98
2023-02-22T06:00:23.219Z,28.92
2023-02-22T06:03:10.978Z,28.67
2023-02-22T06:05:58.900Z,28.70
2023-02-22T06:08:44.781Z,27.30
2023-02-22T06:11:30.678Z,26.48
2023-02-22T06:14:17.869Z,23.45
2023-02-22T06:17:05.350Z,28.02
2023-02-22T06:19:51.097Z,27.15
2023-02-22T06:22:36.983Z,25.23
2023-02-22T06:25:26.641Z,26.85
2023-02-22T06:28:12.652Z,26.83
2023-02-22T06:30:59.961Z,25.05
2023-02-22T06:33:45.863Z,25.95
2023-02-22T06:36:31.800Z,26.20
2023-02-22T06:39:19.006Z,25.88
2023-02-22T06:42:04.986Z,25.10
2023-02-22T06:44:51.792Z,25.83
2023-02-22T06:47:42.285Z,25.42
2023-02-22T06:50:30.287Z,22.73
2023-02-22T06:53:15.824Z,26.65
2023-02-22T06:56:02.180Z,24.77
2023-02-22T06:58:49.409Z,27.17
2023-02-22T07:01:35.721Z,24.83
2023-02-22T07:04:22.697Z,26.08
2023-02-22T07:07:08.609Z,26.17
2023-02-22T07:09:54.308Z,24.60
2023-02-22T07:12:39.965Z,25.05
2023-02-22T07:15:28.187Z,25.33
2023-02-22T07:18:14.164Z,25.23
2023-02-22T07:21:01.261Z,24.38
2023-02-22T07:23:52.221Z,24.80
2023-02-22T07:26:40.570Z,23.92
2023-02-22T07:29:26.569Z,24.77
2023-02-22T07:32:12.241Z,25.42
2023-02-22T07:34:58.623Z,24.95
2023-02-22T07:37:45.821Z,27.48
2023-02-22T07:40:31.973Z,26.77
2023-02-22T07:43:19.765Z,28.48
2023-02-22T07:46:05.817Z,26.08
2023-02-22T07:48:51.426Z,26.02
2023-02-22T07:51:36.989Z,25.92
2023-02-22T07:54:24.354Z,25.25
2023-02-22T07:57:09.997Z,26.05
2023-02-22T07:59:55.873Z,28.13
2023-02-22T08:02:41.540Z,25.90
2023-02-22T08:05:29.180Z,25.48
2023-02-22T08:08:18.712Z,23.08
2023-02-22T08:11:06.772Z,21.90
2023-02-22T08:13:52.518Z,22.48
2023-02-22T08:16:38.317Z,20.73
2023-02-22T08:19:24.060Z,21.52
2023-02-22T08:22:09.924Z,21.10
2023-02-22T08:24:55.821Z,20.67
2023-02-22T08:27:43.783Z,21.40
2023-02-22T08:30:31.153Z,20.55
2023-02-22T08:33:19.691Z,21.45
2023-02-22T08:36:06.359Z,22.48
2023-02-22T08:38:52.080Z,21.30
2023-02-22T08:41:37.885Z,21.92
2023-02-22T08:44:25.321Z,21.50
2023-02-22T08:47:11.290Z,22.08
2023-02-22T08:49:56.762Z,21.20
2023-02-22T08:52:42.141Z,21.48
2023-02-22T08:55:32.101Z,21.25
2023-02-22T08:58:17.796Z,19.13
2023-02-22T09:01:05.182Z,20.73
2023-02-22T09:03:51.752Z,21.13
2023-02-22T09:06:39.988Z,22.38
2023-02-22T09:09:26.014Z,21.85
2023-02-22T09:12:12.136Z,21.88
2023-02-22T09:14:58.179Z,21.50
2023-02-22T09:17:45.560Z,24.83
2023-02-22T09:20:31.670Z,22.60
2023-02-22T09:23:17.449Z,20.33
2023-02-22T09:26:03.699Z,21.48
2023-02-22T09:28:49.523Z,22.65
2023-02-22T09:31:36.631Z,21.08
2023-02-22T09:34:29.552Z,20.13
2023-02-22T09:37:15.729Z,20.98
2023-02-22T09:40:01.378Z,19.05
2023-02-22T09:42:52.580Z,20.02
2023-02-22T09:48:33.829Z,18.58
2023-02-22T09:51:21.756Z,20.42
2023-02-22T09:54:15.164Z,19.13
2023-02-22T09:57:04.446Z,19.73
2023-02-22T10:00:01.044Z,20.27
2023-02-22T10:02:52.528Z,19.80
2023-02-22T10:05:41.926Z,19.92
2023-02-22T10:08:31.627Z,19.63
2023-02-22T10:11:28.468Z,19.05
2023-02-22T10:14:34.768Z,19.17
2023-02-22T10:17:30.448Z,18.90
2023-02-22T10:20:30.847Z,19.02
2023-02-22T10:23:23.941Z,19.85
2023-02-22T10:26:17.202Z,19.70
2023-02-22T10:29:10.706Z,20.17
2023-02-22T10:31:59.963Z,20.95
2023-02-22T10:34:48.546Z,20.98
2023-02-22T10:37:35.426Z,20.00
2023-02-22T10:40:31.952Z,20.52
2023-02-22T10:43:19.902Z,20.23
2023-02-22T10:46:08.104Z,19.77
2023-02-22T10:48:58.266Z,19.88
2023-02-22T10:51:44.128Z,19.80
2023-02-22T10:54:33.598Z,19.33
2023-02-22T10:57:23.026Z,20.08
2023-02-22T11:00:20.123Z,20.00
2023-02-22T11:03:17.164Z,18.90
2023-02-22T11:06:19.932Z,18.10
2023-02-22T11:09:10.333Z,18.08
2023-02-22T11:12:09.511Z,19.00
2023-02-22T11:14:55.448Z,18.67
2023-02-22T11:17:43.489Z,17.90
2023-02-22T11:20:34.883Z,17.83
2023-02-22T11:23:23.547Z,16.60
2023-02-22T11:26:14.287Z,18.15
2023-02-22T11:29:01.599Z,17.38
2023-02-22T11:31:49.389Z,16.75
2023-02-22T11:34:38.972Z,17.13
2023-02-22T11:37:32.390Z,17.60
2023-02-22T11:40:22.282Z,16.77
2023-02-22T11:43:12.201Z,18.10
2023-02-22T11:46:03.584Z,18.10
2023-02-22T11:48:58.301Z,17.27
2023-02-22T11:51:53.661Z,16.55
2023-02-22T11:55:12.491Z,16.38
2023-02-22T11:58:08.459Z,16.75
2023-02-22T12:01:02.285Z,16.70
2023-02-22T12:04:26.280Z,16.63
2023-02-22T12:07:38.380Z,16.83
2023-02-22T12:10:41.361Z,16.73
2023-02-22T12:13:40.081Z,17.00
2023-02-22T12:16:38.018Z,17.77
2023-02-22T12:19:32.543Z,18.50
2023-02-22T12:22:24.875Z,17.92
2023-02-22T12:25:21.577Z,16.80
2023-02-22T12:28:24.634Z,17.17
2023-02-22T12:31:19.082Z,17.70
2023-02-22T12:34:09.850Z,17.65
2023-02-22T12:37:01.576Z,17.92
2023-02-22T12:39:56.509Z,18.15
2023-02-22T12:42:53.713Z,17.67
2023-02-22T12:45:45.171Z,18.00
2023-02-22T12:51:30.029Z,17.83
2023-02-22T12:54:21.304Z,17.70
2023-02-22T12:57:16.984Z,16.50
2023-02-22T13:00:10.468Z,16.38
2023-02-22T13:03:01.124Z,14.30
2023-02-22T13:05:51.523Z,14.57
2023-02-22T13:08:45.826Z,14.80
2023-02-22T13:11:37.586Z,14.05
2023-02-22T13:14:38.786Z,14.30
2023-02-22T13:17:34.586Z,13.57
2023-02-22T13:20:27.323Z,13.95
2023-02-22T13:23:24.139Z,13.77
2023-02-22T13:26:15.323Z,14.43
2023-02-22T13:29:05.710Z,14.00
2023-02-22T13:32:06.422Z,13.60
2023-02-22T13:35:10.849Z,14.73
2023-02-22T13:38:22.027Z,14.27
2023-02-22T13:41:28.774Z,14.98
2023-02-22T13:44:44.462Z,13.15
2023-02-22T13:48:09.313Z,12.88
2023-02-22T13:51:13.809Z,13.88
2023-02-22T13:54:04.542Z,13.88
2023-02-22T13:56:52.180Z,14.93
2023-02-22T13:59:39.424Z,13.93
2023-02-22T14:03:01.128Z,14.82
2023-02-22T14:08:45.888Z,14.98
2023-02-22T14:11:54.141Z,14.93
2023-02-22T14:15:28.744Z,15.52
2023-02-22T14:18:17.295Z,15.40
2023-02-22T14:21:07.538Z,14.85
2023-02-22T14:23:54.273Z,15.27
2023-02-22T14:26:41.366Z,15.90
2023-02-22T14:29:28.054Z,14.27
2023-02-22T14:32:17.564Z,14.52
2023-02-22T14:35:09.602Z,15.48
2023-02-22T14:38:01.932Z,15.25
2023-02-22T14:40:49.492Z,14.63
2023-02-22T14:43:38.020Z,15.27
2023-02-22T14:46:28.163Z,14.18
2023-02-22T14:49:19.710Z,14.40
2023-02-22T14:52:13.238Z,14.40
2023-02-22T14:55:05.852Z,13.98
2023-02-22T14:58:08.613Z,13.20
2023-02-22T15:00:56.824Z,13.48
2023-02-22T15:03:45.005Z,14.40
2023-02-22T15:06:35.268Z,13.77
2023-02-22T15:09:29.680Z,12.98
2023-02-22T15:12:24.492Z,14.00
2023-02-22T15:15:14.156Z,17.90
2023-02-22T15:18:00.171Z,14.07
2023-02-22T15:20:48.408Z,14.57
2023-02-22T15:23:43.395Z,13.95
2023-02-22T15:26:37.250Z,13.80
2023-02-22T15:29:25.016Z,15.02
2023-02-22T15:32:29.274Z,15.20
2023-02-22T15:35:18.759Z,15.52
2023-02-22T15:38:06.669Z,15.88
2023-02-22T15:41:08.345Z,16.30
2023-02-22T15:44:01.790Z,15.90
2023-02-22T15:46:49.672Z,15.68
2023-02-22T15:49:37.916Z,15.82
2023-02-22T15:52:26.496Z,16.95
2023-02-22T15:55:14.603Z,16.58
2023-02-22T15:58:08.844Z,16.73
2023-02-22T16:01:01.756Z,16.90
2023-02-22T16:03:49.610Z,17.90
2023-02-22T16:06:37.749Z,18.33
2023-02-22T16:09:26.132Z,17.35
2023-02-22T16:12:26.294Z,17.63
2023-02-22T16:15:17.593Z,17.98
2023-02-22T16:18:26.312Z,18.15
2023-02-22T16:21:13.971Z,18.00
2023-02-22T16:24:13.794Z,18.52
2023-02-22T16:27:16.523Z,18.70
2023-02-22T16:33:05.561Z,18.83
2023-02-22T16:35:53.918Z,18.13
2023-02-22T16:38:40.258Z,19.02
2023-02-22T16:41:26.137Z,19.92
2023-02-22T16:44:13.110Z,19.85
2023-02-22T16:47:00.545Z,20.20
2023-02-22T16:49:52.751Z,17.55
2023-02-22T16:52:40.184Z,20.13
2023-02-22T16:55:26.915Z,19.25
2023-02-22T16:58:13.738Z,20.23
2023-02-22T17:00:59.372Z,19.20
2023-02-22T17:03:45.893Z,20.33
2023-02-22T17:06:33.331Z,20.60
2023-02-22T17:09:22.231Z,20.35
2023-02-22T17:12:09.773Z,21.23
2023-02-22T17:14:55.780Z,19.20
2023-02-22T17:17:41.446Z,22.02
2023-02-22T17:20:30.140Z,20.85
2023-02-22T17:23:18.059Z,21.30
2023-02-22T17:26:04.225Z,21.45
2023-02-22T17:28:49.868Z,21.25
2023-02-22T17:31:35.959Z,21.42
2023-02-22T17:34:21.800Z,22.73
2023-02-22T17:37:07.790Z,21.85
2023-02-22T17:39:55.841Z,22.90
2023-02-22T17:42:42.334Z,22.23
2023-02-22T17:45:28.872Z,23.98
2023-02-22T17:48:16.438Z,27.60
2023-02-22T17:51:06.784Z,27.60
2023-02-22T17:53:53.322Z,30.75
2023-02-22T17:56:42.491Z,32.83
2023-02-22T17:59:28.324Z,34.45
2023-02-22T18:02:14.022Z,34.83
2023-02-22T18:05:01.134Z,36.38
2023-02-22T18:07:47.121Z,36.53
2023-02-22T18:10:32.961Z,38.03
2023-02-22T18:13:20.698Z,37.92
2023-02-22T18:16:08.058Z,36.92
2023-02-22T18:18:55.579Z,36.20
2023-02-22T18:21:41.242Z,37.33
2023-02-22T18:24:27.445Z,36.33
2023-02-22T18:27:14.793Z,36.63
2023-02-22T18:30:01.933Z,35.85
2023-02-22T18:32:48.000Z,37.80
2023-02-22T18:35:33.916Z,36.45
2023-02-22T18:38:23.424Z,37.45
2023-02-22T18:41:10.952Z,39.35
2023-02-22T18:44:00.612Z,39.42
2023-02-22T18:46:47.841Z,39.45
2023-02-22T18:49:33.682Z,39.22
2023-02-22T18:52:19.697Z,39.85
2023-02-22T18:55:08.701Z,40.83
2023-02-22T18:57:55.724Z,41.63
2023-02-22T19:00:41.563Z,40.58
2023-02-22T19:03:29.851Z,41.78
2023-02-22T19:06:18.024Z,41.50
2023-02-22T19:09:07.857Z,42.00
2023-02-22T19:11:54.550Z,41.65
2023-02-22T19:14:42.276Z,41.85
2023-02-22T19:17:29.477Z,43.15
2023-02-22T19:20:17.084Z,42.17
2023-02-22T19:23:03.212Z,42.83
2023-02-22T19:25:48.709Z,45.58
2023-02-22T19:28:34.382Z,46.15
2023-02-22T19:31:26.228Z,44.67
2023-02-22T19:34:14.947Z,45.47
2023-02-22T19:37:02.255Z,45.33
2023-02-22T19:39:47.933Z,45.67
2023-02-22T19:42:33.613Z,45.92
2023-02-22T19:45:22.095Z,45.22
2023-02-22T19:48:08.559Z,46.58
2023-02-22T19:50:57.793Z,48.15
2023-02-22T19:54:54.740Z,52.55
2023-02-22T19:57:46.516Z,53.72
2023-02-22T20:00:35.520Z,50.05
2023-02-22T20:03:23.527Z,55.03
2023-02-22T20:06:09.900Z,52.78
2023-02-22T20:08:56.969Z,54.50
2023-02-22T20:11:43.320Z,52.13
2023-02-22T20:14:30.918Z,50.92
2023-02-22T20:17:16.666Z,50.38
2023-02-22T20:20:02.525Z,52.35
2023-02-22T20:22:48.713Z,50.03
2023-02-22T20:25:35.446Z,50.33
2023-02-22T20:28:21.417Z,51.67
2023-02-22T20:31:11.293Z,54.22
2023-02-22T20:33:59.231Z,53.55
2023-02-22T20:36:45.187Z,49.45
2023-02-22T20:39:31.589Z,52.40
2023-02-22T20:42:17.796Z,49.17
2023-02-22T20:45:06.051Z,52.45
2023-02-22T20:47:54.546Z,50.30
2023-02-22T20:50:40.518Z,49.53
2023-02-22T20:53:26.461Z,52.03
2023-02-22T20:56:13.654Z,49.15
2023-02-22T20:59:01.419Z,48.95
2023-02-22T21:01:49.403Z,48.42
2023-02-22T21:04:36.490Z,48.03
2023-02-22T21:07:22.503Z,48.45
2023-02-22T21:10:08.659Z,48.85
2023-02-22T21:12:56.918Z,46.60
2023-02-22T21:15:47.135Z,46.83
2023-02-22T21:18:33.162Z,50.05
2023-02-22T21:21:20.538Z,47.63
2023-02-22T21:24:07.283Z,46.17
2023-02-22T21:26:53.086Z,47.20
2023-02-22T21:29:39.072Z,46.47
2023-02-22T21:32:24.933Z,46.10
2023-02-22T21:35:10.925Z,43.97
2023-02-22T21:37:58.363Z,45.40
2023-02-22T21:40:46.160Z,47.38
2023-02-22T21:43:32.454Z,47.17
2023-02-22T21:46:18.649Z,44.65
2023-02-22T21:49:04.637Z,46.53
2023-02-22T21:51:51.822Z,44.15
2023-02-22T21:54:39.432Z,45.90
2023-02-22T21:57:26.144Z,47.00
2023-02-22T22:00:17.440Z,45.10
2023-02-22T22:03:20.205Z,47.00
2023-02-22T22:06:09.709Z,48.15
2023-02-22T22:08:56.364Z,44.70
2023-02-22T22:11:43.284Z,47.08
2023-02-22T22:14:28.811Z,46.95
2023-02-22T22:17:14.627Z,48.03
2023-02-22T22:20:00.095Z,46.83
2023-02-22T22:22:46.278Z,45.13
2023-02-22T22:25:32.867Z,48.35
2023-02-22T22:28:20.694Z,47.67
2023-02-22T22:31:07.330Z,46.88
2023-02-22T22:33:54.517Z,46.40
2023-02-22T22:36:40.303Z,45.15
2023-02-22T22:39:26.819Z,46.60
2023-02-22T22:42:13.392Z,44.97
2023-02-22T22:45:00.548Z,44.70
2023-02-22T22:47:46.807Z,45.10
2023-02-22T22:50:34.028Z,44.22
2023-02-22T22:53:20.007Z,44.65
2023-02-22T22:56:08.609Z,45.22
2023-02-22T22:58:56.128Z,43.15
2023-02-22T23:01:47.080Z,45.05
2023-02-22T23:04:33.098Z,42.60
2023-02-22T23:07:18.791Z,43.95
2023-02-22T23:10:06.444Z,43.13
2023-02-22T23:12:53.744Z,43.90
2023-02-22T23:15:42.870Z,43.20
2023-02-22T23:18:33.917Z,44.03
2023-02-22T23:21:23.721Z,43.35
2023-02-22T23:24:10.813Z,41.75
2023-02-22T23:27:00.268Z,44.00
2023-02-22T23:29:46.577Z,43.90
2023-02-22T23:32:35.001Z,40.67
2023-02-22T23:35:22.014Z,41.28
2023-02-22T23:38:09.075Z,42.80
2023-02-22T23:41:00.339Z,42.92
2023-02-22T23:43:46.306Z,43.42
2023-02-22T23:46:32.904Z,41.45
2023-02-22T23:49:20.342Z,42.88
2023-02-22T23:52:08.476Z,43.28
2023-02-22T23:54:54.237Z,42.15
2023-02-22T23:57:43.138Z,43.30
